Asteria — WDE5489 — position and weather

sailwx.info

Track history (hours):
 
Tides and Currents Weather Stations Pressure Air Temp Water Temp Dewpoint Dewpoint Depression Visibility Wind Speed Wind Dir Waves Ship Positions

Asteria

Owner: Boston HarborCruises, Boston, MA. More information available from US FCC via Universal Licensing System and Coast Guard Vessel Documentation Center.

Last reported at 2016-Aug-25 23:34 UTC. Time now 2016-Aug-26 10:18 UTC.
Position N 42°21' W 071°02'.

Length 33 m; draft 2 m.

Type: High speed craft. MMSI: 367367470.

Date/timePositionNaut miles runAvg speedWind from/ knotsBaromVisibWave heightAir tempDewpointWater temp
2016-Aug-25 23:34N 42°21' W 071°02'8 8.1
2016-Aug-25 22:33N 42°15' W 070°55'8 8.3
2016-Aug-25 21:33N 42°21' W 071°03'0 0.0
2016-Aug-25 20:33N 42°21' W 071°03'0 0.5
2016-Aug-25 19:34N 42°22' W 071°02'2 2.2
2016-Aug-25 18:34N 42°20' W 070°60'2929.3
2016-Aug-25 17:33N 42°17' W 070°20'3 2.7
2016-Aug-25 16:31N 42°16' W 070°17'2323.9
2016-Aug-25 15:34N 42°18' W 070°48'1211.8
2016-Aug-25 14:33N 42°22' W 071°03'1 0.6
2016-Aug-25 13:33N 42°22' W 071°02'8 8.2
2016-Aug-25 12:33N 42°15' W 070°55'5 5.0
2016-Aug-25 11:33N 42°19' W 070°59'4 4.3
2016-Aug-25 10:33N 42°16' W 070°55'1 0.8
2016-Aug-25 09:33N 42°15' W 070°55'8 0.8
2016-Aug-24 23:34N 42°21' W 071°03'8 8.0
2016-Aug-24 22:31N 42°15' W 070°55'8 8.7
2016-Aug-24 21:33N 42°21' W 071°03'0 0.3
2016-Aug-24 20:33N 42°21' W 071°03'0 0.4
2016-Aug-24 19:33N 42°22' W 071°03'1919.2
2016-Aug-24 18:34N 42°23' W 070°37'8 8.1
2016-Aug-24 17:33N 42°24' W 070°26'1616.3
2016-Aug-24 16:33N 42°22' W 070°48'1111.0
2016-Aug-24 15:33N 42°22' W 071°03'1 1.3
2016-Aug-24 14:33N 42°23' W 071°03'1 1.3
2016-Aug-24 13:33N 42°22' W 071°02'8 8.3
2016-Aug-24 12:33N 42°15' W 070°55'5 5.3
2016-Aug-24 11:33N 42°19' W 070°60'5 4.7
2016-Aug-24 10:34N 42°16' W 070°55'1 0.8
2016-Aug-24 09:33N 42°15' W 070°55'8 0.8
2016-Aug-23 23:34N 42°21' W 071°03'8 8.2
2016-Aug-23 22:33N 42°15' W 070°55'8 8.3
2016-Aug-23 21:34N 42°21' W 071°03'0 0.1
2016-Aug-23 20:33N 42°21' W 071°03'1 0.5
2016-Aug-23 19:33N 42°22' W 071°02'1211.5
2016-Aug-23 18:33N 42°18' W 070°47'2827.4
2016-Aug-23 17:33N 42°13' W 070°11'1010.3
2016-Aug-23 16:33N 42°15' W 070°24'1818.2
2016-Aug-23 15:33N 42°18' W 070°48'1111.2
2016-Aug-23 14:33N 42°22' W 071°03'0 0.4
2016-Aug-23 13:33N 42°22' W 071°02'8 8.2
2016-Aug-23 12:34N 42°15' W 070°55'5 5.0
2016-Aug-23 11:33N 42°19' W 070°59'4 4.4
2016-Aug-23 10:33N 42°16' W 070°55'1 0.8
2016-Aug-23 09:33N 42°15' W 070°55'0 0.0
2016-Aug-23 00:08N 42°15' W 070°55'814.4
2016-Aug-22 23:34N 42°21' W 071°03'8 8.3
2016-Aug-22 22:33N 42°15' W 070°55'8 8.2
2016-Aug-22 21:33N 42°21' W 071°03'0 0.1
2016-Aug-22 20:33N 42°21' W 071°03'1 0.5
2016-Aug-22 19:33N 42°22' W 071°02'0 0.5
2016-Aug-22 18:33N 42°21' W 071°02'2525.1
2016-Aug-22 17:34N 42°22' W 070°28'7 6.3
2016-Aug-22 16:29N 42°21' W 070°19'2324.7
2016-Aug-22 15:34N 42°21' W 070°50'9 9.5
2016-Aug-22 14:33N 42°22' W 071°03'1 0.7
2016-Aug-22 13:33N 42°22' W 071°03'9 9.1
2016-Aug-22 12:33N 42°15' W 070°55'5 5.4
2016-Aug-22 11:33N 42°20' W 070°60'5 4.9
2016-Aug-22 10:34N 42°16' W 070°55'1 0.1
2016-Aug-22 00:34N 42°17' W 070°56'4 4.0
2016-Aug-21 23:33N 42°19' W 071°01'3 2.8
2016-Aug-21 22:33N 42°22' W 071°02'1 0.7
2016-Aug-21 21:34N 42°21' W 071°01'2423.4
2016-Aug-21 20:33N 42°25' W 070°30'3 3.3
2016-Aug-21 19:33N 42°23' W 070°33'1717.2
2016-Aug-21 18:34N 42°21' W 070°56'2 1.7
2016-Aug-21 17:34N 42°19' W 070°55'3029.9
2016-Aug-21 16:33N 42°12' W 070°15'1 1.2
2016-Aug-21 15:34N 42°11' W 070°14'2828.0
2016-Aug-21 14:33N 42°19' W 070°51'9 9.3
2016-Aug-21 13:33N 42°22' W 071°03'1 0.6
2016-Aug-21 12:33N 42°22' W 071°02'7 0.6
2016-Aug-21 00:33N 42°16' W 070°56'8 7.8
2016-Aug-20 23:34N 42°22' W 071°03'1616.4
2016-Aug-20 22:34N 42°18' W 070°41'2222.3
2016-Aug-20 21:34N 42°10' W 070°13'1 1.1
2016-Aug-20 20:34N 42°10' W 070°15'2928.8
2016-Aug-20 19:34N 42°19' W 070°52'9 8.7
2016-Aug-20 18:33N 42°22' W 071°03'1615.6
2016-Aug-20 17:33N 42°23' W 070°42'1211.7
2016-Aug-20 16:33N 42°24' W 070°26'1919.1
2016-Aug-20 15:34N 42°21' W 070°52'8 8.4
2016-Aug-20 14:34N 42°22' W 071°03'1 0.6
2016-Aug-20 13:34N 42°22' W 071°02'1 1.3
2016-Aug-20 12:34N 42°23' W 071°03'5 5.1
2016-Aug-20 11:34N 42°19' W 070°59'4 4.5
2016-Aug-20 10:34N 42°15' W 070°55'0 0.0
2016-Aug-20 01:10N 42°15' W 070°55'813.6
2016-Aug-20 00:34N 42°21' W 071°03'8 8.3
2016-Aug-19 23:33N 42°15' W 070°55'8 8.1
2016-Aug-19 22:34N 42°21' W 071°02'2 2.1
2016-Aug-19 21:34N 42°20' W 070°60'1 1.0
2016-Aug-19 20:33N 42°19' W 071°01'3 3.0
2016-Aug-19 19:34N 42°22' W 071°03'0 0.0
2016-Aug-19 18:34N 42°22' W 071°03'2323.0
2016-Aug-19 17:34N 42°24' W 070°32'3 3.2
2016-Aug-19 16:33N 42°25' W 070°28'1717.5
2016-Aug-19 15:34N 42°23' W 070°51'9 8.6
2016-Aug-19 14:33N 42°22' W 071°03'1 0.6
2016-Aug-19 13:33N 42°22' W 071°02'8 8.3
2016-Aug-19 12:34N 42°15' W 070°55'6 5.6
2016-Aug-19 11:34N 42°20' W 070°60'5 4.6
2016-Aug-19 10:33N 42°16' W 070°56'1 0.8
2016-Aug-19 09:24N 42°15' W 070°55'0 0.0
2016-Aug-19 00:09N 42°15' W 070°55'814.0
2016-Aug-18 23:33N 42°21' W 071°03'8 8.2
2016-Aug-18 22:33N 42°15' W 070°55'8 8.1
2016-Aug-18 21:34N 42°21' W 071°02'0 0.4
2016-Aug-18 20:34N 42°21' W 071°03'1 0.5
2016-Aug-18 19:33N 42°22' W 071°03'0 0.3
2016-Aug-18 18:33N 42°22' W 071°03'8 7.5
2016-Aug-18 17:34N 42°21' W 070°53'1918.9
2016-Aug-18 16:33N 42°24' W 070°28'1616.1
2016-Aug-18 15:34N 42°22' W 070°49'1010.1
2016-Aug-18 14:33N 42°22' W 071°03'1 0.5
2016-Aug-18 13:33N 42°22' W 071°02'8 8.4
2016-Aug-18 12:33N 42°15' W 070°55'5 5.0
2016-Aug-18 11:34N 42°19' W 070°59'3 3.2
2016-Aug-18 10:33N 42°18' W 070°55'3 2.6
2016-Aug-18 09:26N 42°15' W 070°55'8 0.8
2016-Aug-17 23:33N 42°21' W 071°03'8 8.3
2016-Aug-17 22:33N 42°15' W 070°55'8 8.4
2016-Aug-17 21:33N 42°21' W 071°03'0 0.3
2016-Aug-17 20:33N 42°21' W 071°03'0 0.4
2016-Aug-17 19:33N 42°22' W 071°02'1 0.6
2016-Aug-17 18:33N 42°22' W 071°03'2121.0
2016-Aug-17 17:34N 42°26' W 070°35'8 7.5
2016-Aug-17 16:33N 42°24' W 070°25'1919.4
2016-Aug-17 15:34N 42°25' W 070°51'9 9.3
2016-Aug-17 14:33N 42°22' W 071°03'1 0.9
2016-Aug-17 13:33N 42°23' W 071°03'9 9.2
2016-Aug-17 12:34N 42°15' W 070°55'5 5.4
2016-Aug-17 11:34N 42°19' W 070°60'5 4.9
2016-Aug-17 10:33N 42°15' W 070°58'2 0.2
2016-Aug-17 00:08N 42°15' W 070°55'814.7
2016-Aug-16 23:34N 42°21' W 071°03'8 8.2
2016-Aug-16 22:33N 42°15' W 070°55'8 8.4
2016-Aug-16 21:34N 42°21' W 071°03'0 0.1
2016-Aug-16 20:33N 42°21' W 071°03'0 0.5
2016-Aug-16 19:33N 42°22' W 071°02'6 6.4
2016-Aug-16 18:33N 42°22' W 070°54'2323.1
2016-Aug-16 17:33N 42°22' W 070°22'2 2.1
2016-Aug-16 16:33N 42°24' W 070°24'1716.8
2016-Aug-16 15:34N 42°22' W 070°47'1211.7
2016-Aug-16 14:33N 42°22' W 071°03'1 0.6
2016-Aug-16 13:33N 42°22' W 071°02'8 8.2
2016-Aug-16 12:33N 42°15' W 070°55'5 4.9
2016-Aug-16 11:34N 42°19' W 070°59'3 3.3
2016-Aug-16 10:33N 42°17' W 070°56'2 2.0
2016-Aug-16 09:33N 42°15' W 070°55'0 0.0
2016-Aug-16 01:06N 42°15' W 070°55'815.5
2016-Aug-16 00:34N 42°21' W 071°03'  
Track history (hours):
 
Tides and Currents Weather Stations Pressure Air Temp Water Temp Dewpoint Dewpoint Depression Visibility Wind Speed Wind Dir Waves Ship Positions

Asteria

Owner: Boston HarborCruises, Boston, MA. More information available from US FCC via Universal Licensing System and Coast Guard Vessel Documentation Center.

Last reported at 2016-Aug-25 23:34 UTC. Time now 2016-Aug-26 10:18 UTC.
Position N 42°21' W 071°02'.

Length 33 m; draft 2 m.

Type: High speed craft. MMSI: 367367470.

Date/timePositionNaut miles runAvg speedWind from/ knotsBaromVisibWave heightAir tempDewpointWater temp
2016-Aug-25 23:34N 42°21' W 071°02'8 8.1
2016-Aug-25 22:33N 42°15' W 070°55'8 8.3
2016-Aug-25 21:33N 42°21' W 071°03'0 0.0
2016-Aug-25 20:33N 42°21' W 071°03'0 0.5
2016-Aug-25 19:34N 42°22' W 071°02'2 2.2
2016-Aug-25 18:34N 42°20' W 070°60'2929.3
2016-Aug-25 17:33N 42°17' W 070°20'3 2.7
2016-Aug-25 16:31N 42°16' W 070°17'2323.9
2016-Aug-25 15:34N 42°18' W 070°48'1211.8
2016-Aug-25 14:33N 42°22' W 071°03'1 0.6
2016-Aug-25 13:33N 42°22' W 071°02'8 8.2
2016-Aug-25 12:33N 42°15' W 070°55'5 5.0
2016-Aug-25 11:33N 42°19' W 070°59'4 4.3
2016-Aug-25 10:33N 42°16' W 070°55'1 0.8
2016-Aug-25 09:33N 42°15' W 070°55'8 0.8
2016-Aug-24 23:34N 42°21' W 071°03'8 8.0
2016-Aug-24 22:31N 42°15' W 070°55'8 8.7
2016-Aug-24 21:33N 42°21' W 071°03'0 0.3
2016-Aug-24 20:33N 42°21' W 071°03'0 0.4
2016-Aug-24 19:33N 42°22' W 071°03'1919.2
2016-Aug-24 18:34N 42°23' W 070°37'8 8.1
2016-Aug-24 17:33N 42°24' W 070°26'1616.3
2016-Aug-24 16:33N 42°22' W 070°48'1111.0
2016-Aug-24 15:33N 42°22' W 071°03'1 1.3
2016-Aug-24 14:33N 42°23' W 071°03'1 1.3
2016-Aug-24 13:33N 42°22' W 071°02'8 8.3
2016-Aug-24 12:33N 42°15' W 070°55'5 5.3
2016-Aug-24 11:33N 42°19' W 070°60'5 4.7
2016-Aug-24 10:34N 42°16' W 070°55'1 0.8
2016-Aug-24 09:33N 42°15' W 070°55'8 0.8
2016-Aug-23 23:34N 42°21' W 071°03'8 8.2
2016-Aug-23 22:33N 42°15' W 070°55'8 8.3
2016-Aug-23 21:34N 42°21' W 071°03'0 0.1
2016-Aug-23 20:33N 42°21' W 071°03'1 0.5
2016-Aug-23 19:33N 42°22' W 071°02'1211.5
2016-Aug-23 18:33N 42°18' W 070°47'2827.4
2016-Aug-23 17:33N 42°13' W 070°11'1010.3
2016-Aug-23 16:33N 42°15' W 070°24'1818.2
2016-Aug-23 15:33N 42°18' W 070°48'1111.2
2016-Aug-23 14:33N 42°22' W 071°03'0 0.4
2016-Aug-23 13:33N 42°22' W 071°02'8 8.2
2016-Aug-23 12:34N 42°15' W 070°55'5 5.0
2016-Aug-23 11:33N 42°19' W 070°59'4 4.4
2016-Aug-23 10:33N 42°16' W 070°55'1 0.8
2016-Aug-23 09:33N 42°15' W 070°55'0 0.0
2016-Aug-23 00:08N 42°15' W 070°55'814.4
2016-Aug-22 23:34N 42°21' W 071°03'8 8.3
2016-Aug-22 22:33N 42°15' W 070°55'8 8.2
2016-Aug-22 21:33N 42°21' W 071°03'0 0.1
2016-Aug-22 20:33N 42°21' W 071°03'1 0.5
2016-Aug-22 19:33N 42°22' W 071°02'0 0.5
2016-Aug-22 18:33N 42°21' W 071°02'2525.1
2016-Aug-22 17:34N 42°22' W 070°28'7 6.3
2016-Aug-22 16:29N 42°21' W 070°19'2324.7
2016-Aug-22 15:34N 42°21' W 070°50'9 9.5
2016-Aug-22 14:33N 42°22' W 071°03'1 0.7
2016-Aug-22 13:33N 42°22' W 071°03'9 9.1
2016-Aug-22 12:33N 42°15' W 070°55'5 5.4
2016-Aug-22 11:33N 42°20' W 070°60'5 4.9
2016-Aug-22 10:34N 42°16' W 070°55'1 0.1
2016-Aug-22 00:34N 42°17' W 070°56'4 4.0
2016-Aug-21 23:33N 42°19' W 071°01'3 2.8
2016-Aug-21 22:33N 42°22' W 071°02'1 0.7
2016-Aug-21 21:34N 42°21' W 071°01'2423.4
2016-Aug-21 20:33N 42°25' W 070°30'3 3.3
2016-Aug-21 19:33N 42°23' W 070°33'1717.2
2016-Aug-21 18:34N 42°21' W 070°56'2 1.7
2016-Aug-21 17:34N 42°19' W 070°55'3029.9
2016-Aug-21 16:33N 42°12' W 070°15'1 1.2
2016-Aug-21 15:34N 42°11' W 070°14'2828.0
2016-Aug-21 14:33N 42°19' W 070°51'9 9.3
2016-Aug-21 13:33N 42°22' W 071°03'1 0.6
2016-Aug-21 12:33N 42°22' W 071°02'7 0.6
2016-Aug-21 00:33N 42°16' W 070°56'8 7.8
2016-Aug-20 23:34N 42°22' W 071°03'1616.4
2016-Aug-20 22:34N 42°18' W 070°41'2222.3
2016-Aug-20 21:34N 42°10' W 070°13'1 1.1
2016-Aug-20 20:34N 42°10' W 070°15'2928.8
2016-Aug-20 19:34N 42°19' W 070°52'9 8.7
2016-Aug-20 18:33N 42°22' W 071°03'1615.6
2016-Aug-20 17:33N 42°23' W 070°42'1211.7
2016-Aug-20 16:33N 42°24' W 070°26'1919.1
2016-Aug-20 15:34N 42°21' W 070°52'8 8.4
2016-Aug-20 14:34N 42°22' W 071°03'1 0.6
2016-Aug-20 13:34N 42°22' W 071°02'1 1.3
2016-Aug-20 12:34N 42°23' W 071°03'5 5.1
2016-Aug-20 11:34N 42°19' W 070°59'4 4.5
2016-Aug-20 10:34N 42°15' W 070°55'0 0.0
2016-Aug-20 01:10N 42°15' W 070°55'813.6
2016-Aug-20 00:34N 42°21' W 071°03'8 8.3
2016-Aug-19 23:33N 42°15' W 070°55'8 8.1
2016-Aug-19 22:34N 42°21' W 071°02'2 2.1
2016-Aug-19 21:34N 42°20' W 070°60'1 1.0
2016-Aug-19 20:33N 42°19' W 071°01'3 3.0
2016-Aug-19 19:34N 42°22' W 071°03'0 0.0
2016-Aug-19 18:34N 42°22' W 071°03'2323.0
2016-Aug-19 17:34N 42°24' W 070°32'3 3.2
2016-Aug-19 16:33N 42°25' W 070°28'1717.5
2016-Aug-19 15:34N 42°23' W 070°51'9 8.6
2016-Aug-19 14:33N 42°22' W 071°03'1 0.6
2016-Aug-19 13:33N 42°22' W 071°02'8 8.3
2016-Aug-19 12:34N 42°15' W 070°55'6 5.6
2016-Aug-19 11:34N 42°20' W 070°60'5 4.6
2016-Aug-19 10:33N 42°16' W 070°56'1 0.8
2016-Aug-19 09:24N 42°15' W 070°55'0 0.0
2016-Aug-19 00:09N 42°15' W 070°55'814.0
2016-Aug-18 23:33N 42°21' W 071°03'8 8.2
2016-Aug-18 22:33N 42°15' W 070°55'8 8.1
2016-Aug-18 21:34N 42°21' W 071°02'0 0.4
2016-Aug-18 20:34N 42°21' W 071°03'1 0.5
2016-Aug-18 19:33N 42°22' W 071°03'0 0.3
2016-Aug-18 18:33N 42°22' W 071°03'8 7.5
2016-Aug-18 17:34N 42°21' W 070°53'1918.9
2016-Aug-18 16:33N 42°24' W 070°28'1616.1
2016-Aug-18 15:34N 42°22' W 070°49'1010.1
2016-Aug-18 14:33N 42°22' W 071°03'1 0.5
2016-Aug-18 13:33N 42°22' W 071°02'8 8.4
2016-Aug-18 12:33N 42°15' W 070°55'5 5.0
2016-Aug-18 11:34N 42°19' W 070°59'3 3.2
2016-Aug-18 10:33N 42°18' W 070°55'3 2.6
2016-Aug-18 09:26N 42°15' W 070°55'8 0.8
2016-Aug-17 23:33N 42°21' W 071°03'8 8.3
2016-Aug-17 22:33N 42°15' W 070°55'8 8.4
2016-Aug-17 21:33N 42°21' W 071°03'0 0.3
2016-Aug-17 20:33N 42°21' W 071°03'0 0.4
2016-Aug-17 19:33N 42°22' W 071°02'1 0.6
2016-Aug-17 18:33N 42°22' W 071°03'2121.0
2016-Aug-17 17:34N 42°26' W 070°35'8 7.5
2016-Aug-17 16:33N 42°24' W 070°25'1919.4
2016-Aug-17 15:34N 42°25' W 070°51'9 9.3
2016-Aug-17 14:33N 42°22' W 071°03'1 0.9
2016-Aug-17 13:33N 42°23' W 071°03'9 9.2
2016-Aug-17 12:34N 42°15' W 070°55'5 5.4
2016-Aug-17 11:34N 42°19' W 070°60'5 4.9
2016-Aug-17 10:33N 42°15' W 070°58'2 0.2
2016-Aug-17 00:08N 42°15' W 070°55'814.7
2016-Aug-16 23:34N 42°21' W 071°03'8 8.2
2016-Aug-16 22:33N 42°15' W 070°55'8 8.4
2016-Aug-16 21:34N 42°21' W 071°03'0 0.1
2016-Aug-16 20:33N 42°21' W 071°03'0 0.5
2016-Aug-16 19:33N 42°22' W 071°02'6 6.4
2016-Aug-16 18:33N 42°22' W 070°54'2323.1
2016-Aug-16 17:33N 42°22' W 070°22'2 2.1
2016-Aug-16 16:33N 42°24' W 070°24'1716.8
2016-Aug-16 15:34N 42°22' W 070°47'1211.7
2016-Aug-16 14:33N 42°22' W 071°03'1 0.6
2016-Aug-16 13:33N 42°22' W 071°02'8 8.2
2016-Aug-16 12:33N 42°15' W 070°55'5 4.9
2016-Aug-16 11:34N 42°19' W 070°59'3 3.3
2016-Aug-16 10:33N 42°17' W 070°56'2 2.0
2016-Aug-16 09:33N 42°15' W 070°55'0 0.0
2016-Aug-16 01:06N 42°15' W 070°55'815.5
2016-Aug-16 00:34N 42°21' W 071°03'  

Dump ship's entire track history